createdAt,value
2022-12-29T00:00:10.514Z,92.30
2022-12-29T00:01:12.316Z,92.40
2022-12-29T00:02:15.046Z,92.40
2022-12-29T00:03:16.875Z,92.40
2022-12-29T00:04:20.241Z,92.40
2022-12-29T00:05:22.028Z,92.40
2022-12-29T00:06:23.866Z,92.40
2022-12-29T00:07:25.606Z,92.30
2022-12-29T00:08:42.590Z,92.20
2022-12-29T00:09:45.658Z,92.40
2022-12-29T00:10:47.392Z,92.20
2022-12-29T00:11:51.111Z,92.00
2022-12-29T00:13:11.335Z,92.00
2022-12-29T00:14:32.306Z,92.00
2022-12-29T00:15:40.363Z,91.90
2022-12-29T00:16:44.929Z,92.00
2022-12-29T00:17:46.653Z,91.80
2022-12-29T00:18:48.478Z,91.80
2022-12-29T00:20:09.119Z,91.90
2022-12-29T00:21:39.842Z,91.90
2022-12-29T00:23:00.341Z,91.90
2022-12-29T00:24:28.583Z,92.00
2022-12-29T00:25:49.190Z,91.80
2022-12-29T00:27:18.009Z,91.70
2022-12-29T00:28:38.299Z,91.00
2022-12-29T00:29:58.825Z,90.80
2022-12-29T00:31:20.484Z,90.80
2022-12-29T00:32:40.659Z,90.60
2022-12-29T00:34:01.113Z,90.50
2022-12-29T00:35:12.004Z,90.30
2022-12-29T00:36:32.314Z,90.50
2022-12-29T00:37:52.766Z,90.40
2022-12-29T00:39:17.121Z,90.50
2022-12-29T00:40:38.400Z,90.70
2022-12-29T00:41:59.125Z,90.90
2022-12-29T00:43:19.584Z,91.10
2022-12-29T00:44:21.333Z,91.40
2022-12-29T00:45:23.035Z,91.40
2022-12-29T00:46:24.836Z,91.50
2022-12-29T00:47:26.609Z,91.50
2022-12-29T00:48:47.240Z,91.90
2022-12-29T00:49:48.956Z,91.90
2022-12-29T00:50:50.700Z,92.20
2022-12-29T00:51:52.999Z,92.50
2022-12-29T00:52:54.718Z,92.70
2022-12-29T00:53:56.421Z,93.40
2022-12-29T00:54:58.154Z,93.50
2022-12-29T00:55:59.924Z,93.70
2022-12-29T00:57:02.539Z,93.70
2022-12-29T00:58:04.310Z,94.00
2022-12-29T00:59:09.689Z,93.90
2022-12-29T01:00:12.014Z,94.30
2022-12-29T01:01:13.923Z,94.30
2022-12-29T01:02:15.863Z,94.60
2022-12-29T01:03:17.750Z,94.50
2022-12-29T01:04:21.484Z,94.50
2022-12-29T01:05:23.185Z,94.90
2022-12-29T01:06:25.175Z,95.00
2022-12-29T01:07:26.982Z,95.20
2022-12-29T01:08:29.478Z,95.30
2022-12-29T01:09:51.273Z,95.40
2022-12-29T01:11:07.248Z,95.50
2022-12-29T01:12:10.085Z,95.70
2022-12-29T01:13:11.863Z,95.80
2022-12-29T01:14:13.915Z,96.00
2022-12-29T01:15:16.028Z,96.20
2022-12-29T01:16:23.704Z,96.30
2022-12-29T01:17:25.475Z,96.10
2022-12-29T01:18:27.591Z,96.30
2022-12-29T01:19:29.432Z,96.40
2022-12-29T01:20:31.158Z,96.70
2022-12-29T01:21:33.683Z,96.40
2022-12-29T01:22:35.566Z,96.70
2022-12-29T01:23:37.304Z,96.60
2022-12-29T01:24:39.079Z,96.70
2022-12-29T01:25:40.939Z,96.50
2022-12-29T01:26:42.661Z,96.70
2022-12-29T01:27:44.375Z,96.90
2022-12-29T01:28:46.753Z,96.90
2022-12-29T01:29:48.526Z,96.90
2022-12-29T01:30:50.306Z,97.00
2022-12-29T01:31:52.073Z,97.00
2022-12-29T01:32:53.874Z,97.20
2022-12-29T01:33:55.630Z,97.40
2022-12-29T01:34:57.349Z,97.30
2022-12-29T01:36:06.648Z,97.20
2022-12-29T01:37:09.688Z,97.20
2022-12-29T01:38:11.414Z,97.30
2022-12-29T01:39:13.271Z,97.30
2022-12-29T01:40:16.201Z,97.30
2022-12-29T01:41:20.122Z,97.30
2022-12-29T01:42:27.048Z,97.40
2022-12-29T01:43:52.317Z,97.70
2022-12-29T01:44:59.253Z,97.60
2022-12-29T01:46:01.045Z,97.60
2022-12-29T01:47:02.851Z,98.00
2022-12-29T01:48:06.708Z,97.80
2022-12-29T01:49:24.429Z,97.90
2022-12-29T01:50:31.129Z,97.90
2022-12-29T01:51:37.999Z,97.80
2022-12-29T01:52:45.524Z,97.80
2022-12-29T01:53:47.370Z,97.90
2022-12-29T01:54:53.712Z,98.10
2022-12-29T01:56:02.004Z,98.00
2022-12-29T01:57:09.225Z,98.20
2022-12-29T01:58:13.753Z,98.40
2022-12-29T01:59:23.741Z,98.30
2022-12-29T02:00:25.537Z,98.30
2022-12-29T02:01:27.521Z,98.40
2022-12-29T02:02:33.074Z,98.10
2022-12-29T02:03:36.252Z,98.40
2022-12-29T02:04:45.216Z,98.50
2022-12-29T02:06:11.794Z,98.50
2022-12-29T02:07:19.466Z,98.50
2022-12-29T02:08:27.080Z,98.50
2022-12-29T02:09:29.084Z,98.70
2022-12-29T02:10:33.861Z,98.70
2022-12-29T02:11:37.318Z,98.70
2022-12-29T02:12:39.059Z,98.60
2022-12-29T02:13:40.837Z,98.60
2022-12-29T02:14:42.803Z,98.40
2022-12-29T02:16:14.997Z,98.70
2022-12-29T02:17:35.588Z,98.70
2022-12-29T02:18:56.092Z,98.40
2022-12-29T02:20:40.193Z,98.30
2022-12-29T02:21:56.874Z,98.40
2022-12-29T02:23:32.892Z,98.40
2022-12-29T02:25:04.115Z,98.40
2022-12-29T02:26:56.520Z,98.40
2022-12-29T02:28:29.860Z,98.30
2022-12-29T02:30:08.622Z,98.20
2022-12-29T02:31:48.636Z,98.30
2022-12-29T02:33:19.383Z,98.20
2022-12-29T02:34:28.526Z,98.10
2022-12-29T02:35:36.155Z,98.10
2022-12-29T02:36:56.257Z,98.00
2022-12-29T02:38:24.710Z,97.90
2022-12-29T02:39:43.367Z,97.90
2022-12-29T02:40:54.297Z,98.30
2022-12-29T02:42:24.803Z,98.00
2022-12-29T02:44:00.379Z,97.90
2022-12-29T02:45:17.151Z,97.80
2022-12-29T02:46:35.487Z,97.90
2022-12-29T02:47:41.785Z,97.80
2022-12-29T02:49:05.195Z,97.70
2022-12-29T02:50:36.496Z,97.70
2022-12-29T02:52:24.498Z,97.80
2022-12-29T02:53:46.330Z,97.60
2022-12-29T02:54:50.162Z,97.50
2022-12-29T02:55:53.270Z,96.90
2022-12-29T02:56:55.044Z,96.80
2022-12-29T02:58:26.208Z,96.70
2022-12-29T02:59:28.056Z,96.60
2022-12-29T03:00:30.360Z,96.60
2022-12-29T03:01:32.113Z,96.70
2022-12-29T03:02:52.160Z,96.60
2022-12-29T03:04:16.588Z,96.60
2022-12-29T03:05:23.642Z,96.60
2022-12-29T03:06:58.377Z,96.40
2022-12-29T03:08:10.977Z,96.50
2022-12-29T03:09:26.219Z,96.40
2022-12-29T03:10:51.377Z,96.20
2022-12-29T03:12:09.078Z,96.20
2022-12-29T03:13:39.061Z,96.10
2022-12-29T03:15:11.805Z,96.10
2022-12-29T03:16:29.503Z,96.10
2022-12-29T03:17:47.425Z,96.20
2022-12-29T03:18:49.155Z,96.30
2022-12-29T03:19:53.628Z,96.20
2022-12-29T03:21:03.629Z,96.00
2022-12-29T03:22:28.016Z,95.80
2022-12-29T03:23:30.992Z,95.80
2022-12-29T03:24:39.064Z,95.70
2022-12-29T03:25:46.084Z,95.80
2022-12-29T03:26:50.427Z,95.80
2022-12-29T03:27:57.728Z,95.70
2022-12-29T03:28:59.748Z,95.70
2022-12-29T03:30:07.254Z,95.60
2022-12-29T03:31:11.187Z,95.50
2022-12-29T03:32:14.249Z,95.40
2022-12-29T03:33:24.876Z,95.20
2022-12-29T03:34:27.507Z,95.20
2022-12-29T03:35:33.945Z,95.30
2022-12-29T03:36:48.798Z,95.20
2022-12-29T03:38:14.768Z,95.20
2022-12-29T03:39:19.429Z,95.30
2022-12-29T03:40:23.964Z,95.00
2022-12-29T03:41:31.134Z,94.90
2022-12-29T03:42:36.407Z,94.80
2022-12-29T03:43:38.801Z,95.00
2022-12-29T03:44:43.026Z,94.80
2022-12-29T03:45:44.853Z,94.90
2022-12-29T03:46:46.650Z,94.80
2022-12-29T03:47:48.658Z,94.80
2022-12-29T03:48:50.383Z,94.80
2022-12-29T03:49:52.640Z,94.70
2022-12-29T03:50:54.541Z,94.80
2022-12-29T03:51:56.443Z,94.60
2022-12-29T03:52:58.315Z,94.90
2022-12-29T03:54:00.149Z,94.90
2022-12-29T03:55:01.917Z,94.80
2022-12-29T03:56:03.993Z,94.90
2022-12-29T03:57:05.724Z,94.90
2022-12-29T03:58:07.480Z,95.00
2022-12-29T03:59:09.885Z,94.90
2022-12-29T04:00:12.307Z,95.00
2022-12-29T04:01:14.207Z,94.90
2022-12-29T04:02:16.290Z,94.80
2022-12-29T04:03:20.325Z,94.90
2022-12-29T04:04:22.211Z,94.90
2022-12-29T04:05:24.190Z,94.80
2022-12-29T04:06:26.080Z,95.00
2022-12-29T04:07:27.871Z,95.00
2022-12-29T04:08:29.604Z,94.90
2022-12-29T04:09:32.300Z,94.90
2022-12-29T04:10:34.165Z,94.80
2022-12-29T04:11:35.941Z,94.70
2022-12-29T04:12:37.792Z,94.80
2022-12-29T04:13:41.895Z,94.70
2022-12-29T04:14:43.743Z,94.60
2022-12-29T04:15:46.374Z,94.70
2022-12-29T04:16:48.174Z,94.70
2022-12-29T04:17:49.901Z,94.70
2022-12-29T04:18:51.711Z,94.90
2022-12-29T04:20:13.376Z,94.90
2022-12-29T04:21:16.165Z,94.90
2022-12-29T04:22:20.097Z,94.80
2022-12-29T04:23:21.878Z,94.70
2022-12-29T04:24:23.616Z,94.80
2022-12-29T04:25:25.357Z,94.90
2022-12-29T04:26:27.237Z,94.90
2022-12-29T04:27:28.962Z,94.90
2022-12-29T04:28:30.711Z,94.80
2022-12-29T04:29:32.647Z,94.80
2022-12-29T04:30:34.357Z,94.70
2022-12-29T04:31:36.324Z,94.80
2022-12-29T04:32:39.172Z,94.90
2022-12-29T04:33:40.927Z,94.90
2022-12-29T04:34:42.696Z,94.90
2022-12-29T04:35:45.020Z,94.90
2022-12-29T04:36:46.758Z,95.00
2022-12-29T04:37:48.689Z,94.80
2022-12-29T04:38:50.637Z,95.00
2022-12-29T04:39:52.401Z,95.00
2022-12-29T04:40:54.658Z,94.90
2022-12-29T04:41:56.419Z,94.90
2022-12-29T04:42:58.191Z,95.00
2022-12-29T04:43:59.969Z,95.00
2022-12-29T04:45:02.928Z,95.00
2022-12-29T04:46:04.724Z,94.90
2022-12-29T04:47:06.489Z,94.90
2022-12-29T04:48:09.355Z,95.00
2022-12-29T04:49:11.295Z,94.90
2022-12-29T04:50:13.497Z,95.00
2022-12-29T04:51:15.528Z,95.20
2022-12-29T04:52:17.253Z,95.30
2022-12-29T04:53:20.355Z,95.30
2022-12-29T04:54:22.092Z,95.50
2022-12-29T04:55:23.868Z,95.50
2022-12-29T04:56:25.916Z,95.70
2022-12-29T04:57:28.180Z,95.90
2022-12-29T04:58:29.913Z,96.00
2022-12-29T04:59:31.624Z,96.00
2022-12-29T05:00:33.525Z,96.00
2022-12-29T05:01:35.944Z,96.00
2022-12-29T05:02:38.422Z,95.90
2022-12-29T05:03:40.448Z,95.70
2022-12-29T05:04:42.207Z,95.80
2022-12-29T05:05:44.069Z,95.80
2022-12-29T05:06:45.805Z,95.80
2022-12-29T05:07:47.561Z,95.80
2022-12-29T05:08:49.305Z,95.60
2022-12-29T05:09:51.018Z,95.90
2022-12-29T05:10:52.889Z,95.70
2022-12-29T05:11:54.587Z,95.60
2022-12-29T05:12:56.392Z,95.60
2022-12-29T05:13:58.180Z,95.50
2022-12-29T05:15:00.722Z,95.60
2022-12-29T05:16:02.545Z,95.40
2022-12-29T05:17:04.343Z,95.60
2022-12-29T05:18:06.057Z,95.60
2022-12-29T05:19:08.441Z,95.60
2022-12-29T05:20:10.866Z,95.50
2022-12-29T05:21:12.736Z,95.40
2022-12-29T05:22:15.536Z,95.50
2022-12-29T05:23:17.573Z,95.40
2022-12-29T05:24:20.644Z,95.30
2022-12-29T05:25:22.386Z,95.40
2022-12-29T05:26:24.159Z,95.40
2022-12-29T05:27:25.951Z,95.30
2022-12-29T05:28:27.664Z,95.40
2022-12-29T05:29:29.370Z,95.40
2022-12-29T05:30:31.128Z,95.40
2022-12-29T05:31:32.991Z,95.20
2022-12-29T05:32:35.948Z,95.30
2022-12-29T05:33:37.668Z,95.30
2022-12-29T05:34:39.377Z,95.30
2022-12-29T05:35:41.106Z,95.40
2022-12-29T05:36:42.881Z,95.40
2022-12-29T05:37:44.710Z,95.30
2022-12-29T05:38:46.458Z,95.30
2022-12-29T05:39:48.192Z,95.30
2022-12-29T05:40:49.942Z,95.40
2022-12-29T05:41:51.689Z,95.40
2022-12-29T05:42:53.400Z,95.50
2022-12-29T05:43:55.174Z,95.40
2022-12-29T05:44:56.945Z,95.30
2022-12-29T05:45:58.926Z,95.30
2022-12-29T05:47:00.749Z,95.30
2022-12-29T05:48:02.517Z,95.50
2022-12-29T05:49:04.311Z,95.40
2022-12-29T05:50:06.230Z,95.30
2022-12-29T05:51:08.015Z,95.30
2022-12-29T05:52:09.737Z,95.20
2022-12-29T05:53:11.510Z,95.20
2022-12-29T05:54:13.669Z,95.30
2022-12-29T05:55:15.531Z,95.10
2022-12-29T05:56:17.681Z,95.10
2022-12-29T05:57:19.416Z,95.10
2022-12-29T05:58:21.310Z,95.00
2022-12-29T05:59:23.138Z,95.10
2022-12-29T06:00:24.986Z,95.10
2022-12-29T06:01:26.814Z,95.10
2022-12-29T06:02:28.748Z,95.10
2022-12-29T06:03:30.715Z,95.10
2022-12-29T06:04:32.884Z,95.20
2022-12-29T06:05:34.851Z,95.10
2022-12-29T06:06:36.603Z,95.10
2022-12-29T06:07:38.399Z,95.10
2022-12-29T06:08:40.134Z,95.20
2022-12-29T06:09:41.897Z,95.40
2022-12-29T06:10:43.617Z,95.00
2022-12-29T06:11:45.318Z,95.20
2022-12-29T06:12:47.901Z,95.10
2022-12-29T06:13:49.630Z,95.20
2022-12-29T06:14:51.412Z,95.20
2022-12-29T06:15:53.228Z,95.20
2022-12-29T06:16:55.011Z,95.10
2022-12-29T06:17:56.759Z,95.10
2022-12-29T06:18:58.505Z,95.10
2022-12-29T06:20:00.255Z,95.10
2022-12-29T06:21:03.544Z,95.20
2022-12-29T06:22:05.861Z,95.10
2022-12-29T06:23:07.740Z,95.20
2022-12-29T06:24:09.537Z,95.20
2022-12-29T06:25:11.332Z,95.10
2022-12-29T06:26:13.106Z,95.10
2022-12-29T06:27:15.104Z,95.10
2022-12-29T06:28:18.143Z,95.00
2022-12-29T06:29:21.484Z,95.00
2022-12-29T06:30:23.196Z,94.90
2022-12-29T06:31:25.020Z,94.80
2022-12-29T06:32:26.821Z,94.80
2022-12-29T06:33:28.567Z,94.80
2022-12-29T06:34:31.452Z,94.70
2022-12-29T06:35:33.275Z,94.60
2022-12-29T06:36:35.318Z,94.70
2022-12-29T06:37:37.088Z,94.60
2022-12-29T06:38:38.803Z,94.50
2022-12-29T06:39:40.531Z,94.30
2022-12-29T06:40:45.833Z,94.30
2022-12-29T06:41:47.665Z,94.50
2022-12-29T06:42:49.496Z,94.40
2022-12-29T06:43:51.467Z,94.20
2022-12-29T06:44:53.408Z,94.50
2022-12-29T06:45:55.247Z,94.40
2022-12-29T06:46:58.344Z,94.30
2022-12-29T06:48:00.167Z,94.30
2022-12-29T06:49:01.961Z,94.40
2022-12-29T06:50:04.262Z,94.50
2022-12-29T06:51:05.976Z,94.30
2022-12-29T06:52:12.707Z,94.30
2022-12-29T06:53:14.931Z,94.40
2022-12-29T06:54:16.745Z,94.40
2022-12-29T06:55:19.015Z,94.40
2022-12-29T06:56:20.791Z,94.40
2022-12-29T06:57:22.953Z,94.30
2022-12-29T06:58:24.748Z,94.40
2022-12-29T06:59:26.935Z,94.40
2022-12-29T07:00:29.101Z,94.50
2022-12-29T07:01:31.009Z,94.50
2022-12-29T07:02:32.899Z,94.50
2022-12-29T07:03:34.774Z,94.50
2022-12-29T07:04:36.541Z,94.50
2022-12-29T07:05:38.266Z,94.60
2022-12-29T07:06:41.647Z,94.60
2022-12-29T07:07:43.435Z,94.70
2022-12-29T07:08:45.187Z,94.70
2022-12-29T07:09:47.527Z,94.70
2022-12-29T07:10:49.341Z,94.70
2022-12-29T07:11:51.389Z,94.60
2022-12-29T07:12:53.218Z,94.60
2022-12-29T07:13:54.945Z,94.70
2022-12-29T07:14:56.697Z,94.80
2022-12-29T07:15:58.574Z,94.80
2022-12-29T07:17:00.404Z,94.90
2022-12-29T07:18:02.198Z,94.90
2022-12-29T07:19:04.255Z,95.00
2022-12-29T07:20:07.132Z,94.90
2022-12-29T07:21:09.300Z,94.90
2022-12-29T07:22:11.160Z,95.00
2022-12-29T07:23:12.871Z,95.00
2022-12-29T07:24:14.650Z,95.10
2022-12-29T07:25:16.495Z,95.00
2022-12-29T07:26:19.511Z,95.00
2022-12-29T07:27:21.385Z,95.00
2022-12-29T07:28:23.157Z,95.10
2022-12-29T07:29:25.249Z,95.10
2022-12-29T07:30:27.227Z,95.10
2022-12-29T07:31:29.078Z,95.20
2022-12-29T07:32:34.191Z,95.10
2022-12-29T07:33:36.009Z,95.20
2022-12-29T07:34:37.819Z,95.10
2022-12-29T07:35:39.564Z,95.20
2022-12-29T07:36:41.330Z,95.10
2022-12-29T07:37:43.312Z,95.10
2022-12-29T07:38:45.273Z,95.10
2022-12-29T07:39:47.022Z,95.10
2022-12-29T07:40:48.763Z,95.10
2022-12-29T07:41:50.592Z,95.20
2022-12-29T07:42:52.381Z,95.00
2022-12-29T07:43:54.180Z,95.10
2022-12-29T07:44:55.921Z,95.20
2022-12-29T07:45:57.737Z,95.30
2022-12-29T07:46:59.632Z,95.40
2022-12-29T07:48:03.383Z,95.40
2022-12-29T07:49:05.232Z,95.50
2022-12-29T07:50:07.497Z,95.50
2022-12-29T07:51:09.221Z,95.50
2022-12-29T07:52:11.008Z,95.40
2022-12-29T07:53:12.794Z,95.60
2022-12-29T07:54:14.631Z,95.50
2022-12-29T07:55:17.185Z,95.50
2022-12-29T07:56:18.927Z,95.60
2022-12-29T07:57:22.992Z,95.60
2022-12-29T07:58:28.332Z,95.50
2022-12-29T07:59:30.129Z,95.50
2022-12-29T08:00:31.879Z,95.70
2022-12-29T08:01:33.795Z,95.60
2022-12-29T08:02:35.986Z,95.80
2022-12-29T08:03:37.833Z,95.90
2022-12-29T08:04:39.661Z,95.90
2022-12-29T08:05:41.453Z,95.90
2022-12-29T08:06:43.366Z,95.90
2022-12-29T08:07:45.855Z,95.90
2022-12-29T08:08:47.727Z,96.00
2022-12-29T08:09:49.475Z,95.90
2022-12-29T08:10:51.194Z,95.90
2022-12-29T08:11:52.999Z,95.70
2022-12-29T08:12:54.809Z,95.70
2022-12-29T08:13:56.653Z,95.60
2022-12-29T08:14:58.385Z,95.50
2022-12-29T08:16:00.293Z,95.40
2022-12-29T08:17:02.719Z,95.40
2022-12-29T08:18:04.858Z,95.40
2022-12-29T08:19:06.622Z,95.30
2022-12-29T08:20:09.340Z,95.30
2022-12-29T08:21:11.671Z,95.20
2022-12-29T08:22:15.176Z,95.40
2022-12-29T08:23:16.966Z,95.30
2022-12-29T08:24:18.715Z,95.30
2022-12-29T08:25:20.729Z,95.00
2022-12-29T08:26:22.867Z,95.00
2022-12-29T08:27:27.013Z,95.00
2022-12-29T08:28:31.510Z,95.00
2022-12-29T08:29:33.235Z,94.80
2022-12-29T08:30:35.082Z,94.70
2022-12-29T08:31:37.170Z,94.60
2022-12-29T08:32:38.929Z,94.70
2022-12-29T08:33:40.723Z,94.70
2022-12-29T08:34:42.455Z,94.70
2022-12-29T08:35:44.245Z,94.60
2022-12-29T08:36:45.988Z,94.50
2022-12-29T08:37:47.750Z,94.50
2022-12-29T08:38:49.510Z,94.50
2022-12-29T08:39:51.291Z,94.30
2022-12-29T08:40:53.197Z,94.20
2022-12-29T08:41:55.044Z,94.10
2022-12-29T08:42:56.775Z,94.20
2022-12-29T08:43:58.546Z,94.20
2022-12-29T08:45:00.960Z,94.20
2022-12-29T08:46:02.895Z,94.00
2022-12-29T08:47:04.953Z,94.00
2022-12-29T08:48:06.795Z,94.20
2022-12-29T08:49:08.616Z,94.10
2022-12-29T08:50:10.449Z,94.10
2022-12-29T08:51:12.457Z,94.10
2022-12-29T08:52:14.344Z,93.90
2022-12-29T08:53:16.125Z,93.80
2022-12-29T08:54:17.907Z,93.80
2022-12-29T08:55:19.671Z,93.80
2022-12-29T08:56:21.699Z,93.90
2022-12-29T08:57:23.425Z,93.90
2022-12-29T08:58:26.633Z,93.90
2022-12-29T08:59:28.381Z,94.10
2022-12-29T09:00:30.233Z,94.10
2022-12-29T09:01:32.142Z,94.00
2022-12-29T09:02:34.214Z,93.80
2022-12-29T09:05:01.255Z,93.70
2022-12-29T09:06:03.255Z,93.70
2022-12-29T09:07:06.539Z,93.70
2022-12-29T09:08:08.290Z,93.70
2022-12-29T09:09:10.110Z,93.60
2022-12-29T09:10:11.935Z,93.70
2022-12-29T09:11:22.919Z,93.70
2022-12-29T09:12:24.686Z,93.60
2022-12-29T09:13:26.445Z,93.60
2022-12-29T09:14:28.184Z,93.50
2022-12-29T09:15:29.928Z,93.70
2022-12-29T09:16:31.995Z,93.50
2022-12-29T09:17:46.366Z,93.40
2022-12-29T09:18:48.488Z,93.40
2022-12-29T09:19:50.215Z,93.30
2022-12-29T09:20:57.940Z,93.30
2022-12-29T09:21:59.707Z,93.30
2022-12-29T09:23:01.669Z,93.40
2022-12-29T09:24:03.634Z,93.50
2022-12-29T09:25:06.206Z,93.40
2022-12-29T09:26:08.640Z,93.40
2022-12-29T09:27:10.701Z,93.30
2022-12-29T09:28:15.843Z,93.30
2022-12-29T09:29:17.583Z,93.20
2022-12-29T09:30:20.527Z,93.40
2022-12-29T09:31:23.117Z,93.40
2022-12-29T09:32:28.580Z,93.50
2022-12-29T09:33:35.925Z,93.50
2022-12-29T09:34:41.134Z,93.60
2022-12-29T09:35:50.993Z,93.20
2022-12-29T09:36:52.736Z,93.50
2022-12-29T09:37:59.661Z,93.50
2022-12-29T09:39:01.415Z,93.10
2022-12-29T09:40:03.792Z,93.20
2022-12-29T09:41:18.687Z,93.20
2022-12-29T09:42:39.633Z,93.10
2022-12-29T09:44:13.755Z,93.10
2022-12-29T09:45:20.998Z,93.00
2022-12-29T09:46:27.951Z,93.10
2022-12-29T09:47:30.449Z,93.20
2022-12-29T09:48:38.311Z,93.10
2022-12-29T09:50:22.847Z,93.00
2022-12-29T09:51:26.394Z,92.90
2022-12-29T09:52:34.789Z,92.70
2022-12-29T09:53:48.236Z,92.90
2022-12-29T09:55:06.358Z,92.90
2022-12-29T09:56:20.796Z,93.00
2022-12-29T09:57:44.899Z,93.10
2022-12-29T09:59:05.391Z,92.70
2022-12-29T10:00:19.392Z,92.80
2022-12-29T10:01:21.202Z,92.30
2022-12-29T10:02:43.734Z,92.20
2022-12-29T10:03:49.761Z,92.40
2022-12-29T10:04:52.441Z,92.00
2022-12-29T10:05:58.290Z,92.00
2022-12-29T10:08:51.171Z,91.80
2022-12-29T10:10:07.670Z,91.60
2022-12-29T10:11:28.078Z,91.80
2022-12-29T10:12:41.932Z,91.30
2022-12-29T10:14:21.276Z,91.40
2022-12-29T10:15:56.408Z,91.50
2022-12-29T10:17:04.414Z,91.10
2022-12-29T10:20:00.546Z,90.60
2022-12-29T10:21:23.904Z,90.30
2022-12-29T10:22:28.470Z,90.50
2022-12-29T10:23:36.441Z,90.00
2022-12-29T10:24:40.646Z,90.10
2022-12-29T10:25:43.764Z,90.10
2022-12-29T10:26:47.475Z,89.60
2022-12-29T10:27:55.913Z,90.00
2022-12-29T10:29:04.840Z,89.30
2022-12-29T10:30:07.060Z,90.00
2022-12-29T10:31:22.801Z,89.30
2022-12-29T10:32:30.319Z,89.30
2022-12-29T10:33:37.546Z,89.60
2022-12-29T10:34:46.389Z,90.00
2022-12-29T10:35:49.052Z,89.00
2022-12-29T10:37:00.243Z,89.20
2022-12-29T10:38:36.832Z,88.40
2022-12-29T10:39:46.325Z,88.50
2022-12-29T10:41:04.301Z,89.10
2022-12-29T10:42:34.017Z,89.60
2022-12-29T10:43:48.709Z,89.20
2022-12-29T10:44:50.559Z,88.90
2022-12-29T10:45:55.695Z,89.20
2022-12-29T10:47:02.203Z,88.90
2022-12-29T10:48:12.855Z,89.30
2022-12-29T10:49:22.026Z,89.10
2022-12-29T10:50:26.412Z,89.00
2022-12-29T10:51:39.746Z,89.20
2022-12-29T10:52:42.284Z,89.70
2022-12-29T10:53:50.221Z,89.60
2022-12-29T10:54:54.391Z,89.60
2022-12-29T10:55:56.785Z,90.00
2022-12-29T10:57:14.596Z,90.10
2022-12-29T10:58:16.858Z,89.90
2022-12-29T10:59:28.960Z,89.90
2022-12-29T11:00:30.693Z,89.70
2022-12-29T11:01:40.837Z,90.10
2022-12-29T11:03:04.172Z,90.20
2022-12-29T11:04:44.563Z,90.10
2022-12-29T11:06:13.749Z,90.10
2022-12-29T11:07:25.045Z,90.20
2022-12-29T11:08:36.348Z,89.70
2022-12-29T11:09:43.205Z,89.60
2022-12-29T11:10:47.318Z,88.50
2022-12-29T11:11:49.179Z,89.00
2022-12-29T11:13:01.198Z,89.50
2022-12-29T11:14:14.645Z,88.80
2022-12-29T11:15:17.102Z,88.30
2022-12-29T11:16:35.071Z,89.20
2022-12-29T11:17:52.019Z,88.50
2022-12-29T11:18:53.985Z,89.20
2022-12-29T11:19:55.754Z,89.10
2022-12-29T11:21:01.130Z,89.10
2022-12-29T11:22:23.840Z,88.80
2022-12-29T11:23:36.104Z,90.00
2022-12-29T11:24:46.767Z,90.30
2022-12-29T11:26:12.077Z,90.00
2022-12-29T11:27:23.857Z,90.20
2022-12-29T11:28:30.476Z,90.20
2022-12-29T11:29:41.523Z,90.00
2022-12-29T11:30:44.048Z,90.40
2022-12-29T11:31:55.645Z,90.30
2022-12-29T11:32:58.745Z,90.80
2022-12-29T11:34:08.485Z,90.90
2022-12-29T11:35:34.919Z,90.40
2022-12-29T11:36:37.342Z,90.50
2022-12-29T11:37:40.760Z,90.60
2022-12-29T11:38:56.331Z,90.60
2022-12-29T11:40:06.507Z,90.70
2022-12-29T11:41:14.573Z,90.70
2022-12-29T11:42:23.376Z,90.80
2022-12-29T11:43:34.523Z,90.80
2022-12-29T11:44:42.675Z,90.70
2022-12-29T11:45:47.767Z,90.60
2022-12-29T11:46:52.976Z,90.80
2022-12-29T11:48:01.224Z,90.80
2022-12-29T11:49:05.212Z,90.70
2022-12-29T11:50:09.584Z,90.70
2022-12-29T11:51:12.880Z,91.00
2022-12-29T11:52:14.673Z,90.80
2022-12-29T11:53:23.848Z,90.90
2022-12-29T11:54:31.693Z,91.00
2022-12-29T11:55:34.163Z,90.90
2022-12-29T11:56:42.451Z,90.90
2022-12-29T11:57:45.995Z,91.00
2022-12-29T11:58:50.395Z,90.70
2022-12-29T11:59:56.963Z,90.80
2022-12-29T12:01:25.750Z,91.20
2022-12-29T12:02:43.117Z,91.00
2022-12-29T12:04:03.257Z,90.60
2022-12-29T12:05:22.288Z,90.60
2022-12-29T12:06:25.269Z,90.10
2022-12-29T12:07:43.910Z,90.50
2022-12-29T12:08:57.883Z,90.70
2022-12-29T12:10:08.041Z,90.40
2022-12-29T12:11:21.436Z,90.50
2022-12-29T12:12:30.808Z,90.10
2022-12-29T12:13:56.933Z,90.10
2022-12-29T12:15:00.977Z,90.10
2022-12-29T12:16:25.577Z,90.10
2022-12-29T12:17:38.517Z,90.40
2022-12-29T12:18:47.513Z,90.60
2022-12-29T12:20:01.815Z,90.60
2022-12-29T12:21:45.396Z,90.00
2022-12-29T12:23:15.946Z,90.10
2022-12-29T12:24:32.857Z,89.80
2022-12-29T12:25:39.408Z,90.00
2022-12-29T12:26:56.879Z,89.40
2022-12-29T12:28:16.849Z,90.00
2022-12-29T12:29:26.467Z,89.70
2022-12-29T12:30:34.804Z,89.50
2022-12-29T12:31:56.260Z,89.70
2022-12-29T12:33:11.625Z,90.00
2022-12-29T12:34:34.875Z,89.80
2022-12-29T12:35:45.791Z,90.10
2022-12-29T12:36:47.475Z,89.00
2022-12-29T12:38:20.059Z,89.70
2022-12-29T12:39:39.934Z,89.70
2022-12-29T12:41:29.212Z,89.10
2022-12-29T12:42:47.694Z,88.90
2022-12-29T12:44:18.120Z,88.80
2022-12-29T12:45:22.894Z,88.60
2022-12-29T12:46:33.754Z,88.30
2022-12-29T12:48:07.452Z,89.10
2022-12-29T12:49:17.523Z,89.30
2022-12-29T12:50:38.284Z,88.40
2022-12-29T12:52:08.933Z,88.80
2022-12-29T12:53:58.031Z,89.10
2022-12-29T12:55:13.955Z,89.00
2022-12-29T12:56:28.613Z,89.40
2022-12-29T12:57:54.801Z,89.10
2022-12-29T12:59:18.327Z,89.30
2022-12-29T13:00:24.104Z,88.90
2022-12-29T13:02:04.316Z,88.60
2022-12-29T13:03:35.647Z,88.70
2022-12-29T13:04:38.125Z,88.40
2022-12-29T13:06:17.825Z,88.60
2022-12-29T13:07:44.428Z,87.70
2022-12-29T13:09:25.310Z,88.30
2022-12-29T13:10:53.541Z,88.70
2022-12-29T13:12:01.362Z,88.30
2022-12-29T13:13:18.183Z,89.40
2022-12-29T13:14:45.530Z,88.80
2022-12-29T13:16:14.919Z,88.70
2022-12-29T13:17:45.537Z,89.10
2022-12-29T13:18:50.252Z,88.30
2022-12-29T13:20:22.794Z,88.50
2022-12-29T13:21:39.817Z,89.30
2022-12-29T13:22:57.490Z,89.00
2022-12-29T13:24:29.647Z,89.10
2022-12-29T13:25:52.384Z,88.30
2022-12-29T13:27:12.024Z,88.50
2022-12-29T13:28:28.580Z,89.00
2022-12-29T13:29:45.287Z,88.90
2022-12-29T13:31:07.203Z,89.40
2022-12-29T13:32:33.387Z,88.80
2022-12-29T13:33:40.838Z,88.70
2022-12-29T13:35:07.009Z,89.10
2022-12-29T13:36:30.527Z,88.80
2022-12-29T13:37:37.052Z,89.10
2022-12-29T13:38:48.512Z,88.90
2022-12-29T13:40:02.475Z,89.40
2022-12-29T13:41:33.646Z,89.50
2022-12-29T13:42:35.982Z,89.80
2022-12-29T13:43:43.212Z,89.20
2022-12-29T13:44:49.349Z,89.90
2022-12-29T13:45:59.734Z,89.10
2022-12-29T13:47:11.939Z,89.70
2022-12-29T13:48:19.731Z,89.30
2022-12-29T13:49:25.405Z,90.00
2022-12-29T13:50:29.035Z,89.70
2022-12-29T13:51:31.979Z,89.60
2022-12-29T13:52:50.828Z,89.10
2022-12-29T13:54:17.047Z,89.30
2022-12-29T13:55:38.346Z,89.70
2022-12-29T13:56:41.945Z,89.80
2022-12-29T13:57:43.627Z,90.00
2022-12-29T13:58:51.466Z,90.10
2022-12-29T14:00:00.324Z,90.10
2022-12-29T14:01:16.641Z,90.10
2022-12-29T14:02:41.704Z,90.10
2022-12-29T14:03:53.441Z,90.50
2022-12-29T14:05:04.924Z,90.00
2022-12-29T14:06:13.572Z,90.00
2022-12-29T14:07:18.562Z,90.30
2022-12-29T14:08:20.412Z,90.10
2022-12-29T14:09:49.937Z,89.90
2022-12-29T14:10:53.018Z,89.80
2022-12-29T14:11:55.083Z,90.10
2022-12-29T14:13:14.968Z,90.00
2022-12-29T14:14:29.824Z,90.10
2022-12-29T14:15:31.994Z,90.10
2022-12-29T14:16:35.480Z,89.90
2022-12-29T14:17:38.758Z,89.20
2022-12-29T14:18:44.872Z,88.80
2022-12-29T14:19:47.527Z,89.20
2022-12-29T14:21:11.122Z,88.80
2022-12-29T14:22:13.687Z,90.50
2022-12-29T14:23:15.391Z,90.00
2022-12-29T14:24:37.949Z,90.00
2022-12-29T14:26:09.968Z,89.90
2022-12-29T14:27:11.701Z,90.00
2022-12-29T14:28:23.288Z,90.00
2022-12-29T14:29:25.023Z,89.90
2022-12-29T14:30:51.784Z,89.60
2022-12-29T14:31:54.052Z,89.80
2022-12-29T14:33:04.979Z,90.00
2022-12-29T14:34:12.562Z,90.20
2022-12-29T14:35:39.002Z,90.60
2022-12-29T14:36:56.888Z,90.40
2022-12-29T14:38:16.721Z,90.30
2022-12-29T14:39:46.537Z,90.40
2022-12-29T14:40:49.564Z,90.20